Time;durP1;ratioP1;P1;durP2;ratioP2;P2;SDS_P1;SDS_P2;PMS_P1;PMS_P2;Temp;Humidity;BMP_temperature;BMP_pressure;BME280_temperature;BME280_humidity;BME280_pressure;Samples;Min_cycle;Max_cycle;Signal;HPM_P1;HPM_P2
2023/01/24 00:00:54;;;;;;;11.70;7.78;;;2.40;75.70;;;;;;5054059;28;20025;-59
2023/01/24 00:03:20;;;;;;;10.63;7.68;;;2.40;75.50;;;;;;5052322;28;20020;-60
2023/01/24 00:05:47;;;;;;;9.10;6.75;;;2.40;75.50;;;;;;5054434;28;20033;-62
2023/01/24 00:08:18;;;;;;;10.55;7.57;;;2.40;75.60;;;;;;5061373;28;20038;-62
2023/01/24 00:10:44;;;;;;;10.20;7.05;;;2.40;75.70;;;;;;5049735;28;20426;-62
2023/01/24 00:13:11;;;;;;;9.00;7.10;;;2.30;75.50;;;;;;5049930;28;20113;-62
2023/01/24 00:15:37;;;;;;;10.07;6.63;;;2.30;75.70;;;;;;5061908;28;20077;-60
2023/01/24 00:18:03;;;;;;;10.68;7.13;;;2.30;75.80;;;;;;5061669;28;20447;-60
2023/01/24 00:20:28;;;;;;;9.70;7.07;;;2.30;75.90;;;;;;5056631;28;20105;-60
2023/01/24 00:22:54;;;;;;;10.07;6.82;;;2.30;76.00;;;;;;5053730;28;20024;-59
2023/01/24 00:25:19;;;;;;;8.52;6.55;;;2.30;76.00;;;;;;5063526;28;20036;-60
2023/01/24 00:27:45;;;;;;;10.10;7.55;;;2.30;76.00;;;;;;5061246;28;20378;-60
2023/01/24 00:30:11;;;;;;;10.93;7.50;;;2.30;76.00;;;;;;5062168;28;20033;-60
2023/01/24 00:32:37;;;;;;;9.40;7.30;;;2.30;76.00;;;;;;5062725;28;20094;-53
2023/01/24 00:35:03;;;;;;;11.32;7.50;;;2.30;76.20;;;;;;5060560;28;20032;-55
2023/01/24 00:37:28;;;;;;;11.52;8.02;;;2.30;76.10;;;;;;5056907;28;20133;-60
2023/01/24 00:39:54;;;;;;;9.52;7.00;;;2.30;76.10;;;;;;5062830;28;20107;-61
2023/01/24 00:42:19;;;;;;;10.32;7.60;;;2.30;76.30;;;;;;5061391;28;20123;-59
2023/01/24 00:44:45;;;;;;;11.05;7.45;;;2.40;76.30;;;;;;5051382;28;20077;-62
2023/01/24 00:47:11;;;;;;;10.70;7.43;;;2.40;76.20;;;;;;5060068;28;20101;-61
2023/01/24 00:49:36;;;;;;;9.93;7.57;;;2.40;76.30;;;;;;5055286;28;20476;-60
2023/01/24 00:52:02;;;;;;;9.40;7.55;;;2.40;76.30;;;;;;5055197;28;20040;-62
2023/01/24 00:54:28;;;;;;;10.63;7.50;;;2.40;76.30;;;;;;5057564;28;20041;-61
2023/01/24 00:56:54;;;;;;;10.20;7.68;;;2.40;76.40;;;;;;5059316;28;20040;-60
2023/01/24 00:59:19;;;;;;;9.80;7.72;;;2.40;76.40;;;;;;5052272;28;20060;-59
2023/01/24 01:01:45;;;;;;;9.05;7.22;;;2.40;76.40;;;;;;5052927;28;20029;-59
2023/01/24 01:04:11;;;;;;;11.10;7.70;;;2.40;76.40;;;;;;5047706;28;20091;-62
2023/01/24 01:06:36;;;;;;;10.05;7.00;;;2.40;76.50;;;;;;5052548;28;20470;-59
2023/01/24 01:09:03;;;;;;;12.43;7.60;;;2.40;76.50;;;;;;5050215;28;20025;-59
2023/01/24 01:11:28;;;;;;;12.80;8.18;;;2.40;76.50;;;;;;5051091;28;20049;-54
2023/01/24 01:13:56;;;;;;;10.55;7.55;;;2.40;76.60;;;;;;5046670;28;20076;-52
2023/01/24 01:16:22;;;;;;;9.55;7.28;;;2.40;76.50;;;;;;5047846;28;20065;-59
2023/01/24 01:18:52;;;;;;;9.93;7.35;;;2.50;76.50;;;;;;5049440;28;20079;-59
2023/01/24 01:21:20;;;;;;;9.95;7.07;;;2.40;76.50;;;;;;5050836;28;20113;-62
2023/01/24 01:23:46;;;;;;;10.15;7.75;;;2.50;76.70;;;;;;5050767;28;20111;-61
2023/01/24 01:26:22;;;;;;;10.55;7.80;;;2.50;76.60;;;;;;5063195;28;20025;-52
2023/01/24 01:28:48;;;;;;;9.15;7.57;;;2.50;76.60;;;;;;5051622;28;20029;-54
2023/01/24 01:31:15;;;;;;;10.40;7.35;;;2.50;76.60;;;;;;5060751;28;20562;-51
2023/01/24 01:33:42;;;;;;;10.75;7.68;;;2.50;76.70;;;;;;5059032;28;20047;-53
2023/01/24 01:36:08;;;;;;;9.85;7.47;;;2.50;76.70;;;;;;5053721;28;20039;-48
2023/01/24 01:38:34;;;;;;;10.23;7.63;;;2.50;76.80;;;;;;5051036;28;20033;-52
2023/01/24 01:41:00;;;;;;;12.30;7.22;;;2.50;76.80;;;;;;5058394;28;20112;-62
2023/01/24 01:43:28;;;;;;;10.85;7.75;;;2.50;76.70;;;;;;5049833;28;20040;-61
2023/01/24 01:46:00;;;;;;;12.07;8.43;;;2.50;76.70;;;;;;5059826;28;20029;-62
2023/01/24 01:48:39;;;;;;;13.18;8.25;;;2.50;76.70;;;;;;5052682;28;20107;-61
2023/01/24 01:51:23;;;;;;;12.43;8.48;;;2.50;77.60;;;;;;5051745;28;20047;-55
2023/01/24 01:53:59;;;;;;;12.18;8.70;;;2.50;76.90;;;;;;5053783;28;20044;-49
2023/01/24 01:56:39;;;;;;;9.25;7.53;;;2.60;76.90;;;;;;5049880;28;20027;-60
2023/01/24 01:59:14;;;;;;;10.63;8.02;;;2.60;77.30;;;;;;5048268;28;20038;-61
2023/01/24 02:01:42;;;;;;;12.40;8.82;;;2.60;76.50;;;;;;5052555;28;20120;-63
2023/01/24 02:04:13;;;;;;;11.98;8.70;;;2.70;76.70;;;;;;5057478;28;20463;-62
2023/01/24 02:06:54;;;;;;;13.68;9.05;;;2.70;76.40;;;;;;5057301;28;20040;-62
2023/01/24 02:09:28;;;;;;;10.65;7.38;;;2.70;76.30;;;;;;5050186;28;20087;-62
2023/01/24 02:11:58;;;;;;;13.23;8.82;;;2.70;76.30;;;;;;5051173;28;20043;-62
2023/01/24 02:17:10;;;;;;;14.35;9.13;;;2.70;76.40;;;;;;5055755;28;20036;-62
2023/01/24 02:20:04;;;;;;;11.23;8.55;;;2.70;76.40;;;;;;5052286;28;20029;-60
2023/01/24 02:22:36;;;;;;;13.52;9.20;;;2.70;76.40;;;;;;5043418;28;20128;-61
2023/01/24 02:25:06;;;;;;;;;;;2.70;76.50;;;;;;5054919;28;20086;-63
2023/01/24 02:27:31;;;;;;;13.23;8.75;;;2.60;76.60;;;;;;5059203;28;19916;-61
2023/01/24 02:29:58;;;;;;;13.02;9.07;;;2.70;76.90;;;;;;5062620;28;20360;-63
2023/01/24 02:32:25;;;;;;;11.10;8.35;;;2.70;76.70;;;;;;5056882;28;20025;-62
2023/01/24 02:34:50;;;;;;;11.82;8.40;;;2.80;76.70;;;;;;5054693;28;20116;-62
2023/01/24 02:37:16;;;;;;;12.55;8.90;;;2.80;76.60;;;;;;5057874;28;20108;-62
2023/01/24 02:39:51;;;;;;;12.57;9.15;;;2.80;76.60;;;;;;5049462;28;20044;-62
2023/01/24 02:42:20;;;;;;;12.98;8.52;;;2.80;76.50;;;;;;5053549;28;20136;-60
2023/01/24 02:44:51;;;;;;;12.85;8.95;;;2.80;76.60;;;;;;5050969;28;20110;-60
2023/01/24 02:47:17;;;;;;;12.80;9.38;;;2.80;76.60;;;;;;5052612;28;20136;-53
2023/01/24 02:49:42;;;;;;;13.95;8.82;;;2.90;76.70;;;;;;5055269;28;20475;-51
2023/01/24 02:54:53;;;;;;;13.40;9.23;;;2.90;76.60;;;;;;5053614;28;20036;-62
2023/01/24 03:00:08;;;;;;;10.73;8.73;;;2.90;76.70;;;;;;5053208;28;20035;-60
2023/01/24 03:02:33;;;;;;;15.05;9.27;;;3.00;76.80;;;;;;5050468;28;20403;-61
2023/01/24 03:04:59;;;;;;;13.25;9.52;;;3.00;76.90;;;;;;5065068;28;20090;-60
2023/01/24 03:07:25;;;;;;;12.90;9.27;;;3.00;76.70;;;;;;5058411;28;20375;-52
2023/01/24 03:09:50;;;;;;;12.93;9.35;;;3.00;76.70;;;;;;5050978;28;20510;-51
2023/01/24 03:34:30;;;;;;;13.77;9.57;;;3.10;76.60;;;;;;5046082;28;20040;-62
2023/01/24 03:36:56;;;;;;;14.52;9.57;;;3.10;76.60;;;;;;5056886;28;20025;-61
2023/01/24 03:42:06;;;;;;;12.82;9.30;;;3.10;76.70;;;;;;5051753;28;20059;-61
2023/01/24 03:44:32;;;;;;;12.57;9.60;;;3.10;76.60;;;;;;5058747;28;20048;-61
2023/01/24 03:46:57;;;;;;;13.60;9.85;;;3.10;76.70;;;;;;5040946;28;20400;-48
2023/01/24 03:54:51;;;;;;;14.95;9.90;;;3.10;76.60;;;;;;5060844;28;20052;-61
2023/01/24 03:57:17;;;;;;;14.85;10.50;;;3.10;76.60;;;;;;5056059;28;20025;-60
2023/01/24 03:59:42;;;;;;;13.15;9.77;;;3.20;76.70;;;;;;5052252;28;20036;-60
2023/01/24 04:02:09;;;;;;;12.90;10.00;;;3.20;76.50;;;;;;5051566;28;20028;-62
2023/01/24 04:07:19;;;;;;;13.30;9.52;;;3.20;76.40;;;;;;5051730;28;20040;-62
2023/01/24 04:09:45;;;;;;;13.07;9.48;;;3.20;76.50;;;;;;5047473;28;20458;-62
2023/01/24 04:12:11;;;;;;;12.48;8.48;;;3.20;76.60;;;;;;5061877;28;20052;-62
2023/01/24 04:14:36;;;;;;;13.98;10.75;;;3.20;76.60;;;;;;5050429;28;20135;-62
2023/01/24 04:17:02;;;;;;;13.05;9.30;;;3.20;76.50;;;;;;5048978;28;20071;-62
2023/01/24 04:19:28;;;;;;;15.32;9.43;;;3.20;76.50;;;;;;5056372;28;20062;-61
2023/01/24 04:21:53;;;;;;;14.30;9.95;;;3.20;76.40;;;;;;5061771;28;20029;-60
2023/01/24 04:24:19;;;;;;;15.82;10.57;;;3.20;76.40;;;;;;5057688;28;20119;-60
2023/01/24 04:26:44;;;;;;;13.88;9.93;;;3.30;76.40;;;;;;5050896;28;20119;-61
2023/01/24 04:29:10;;;;;;;13.68;9.25;;;3.30;76.20;;;;;;5062095;28;20055;-61
2023/01/24 04:31:36;;;;;;;12.43;9.50;;;3.30;76.10;;;;;;5054771;28;20037;-61
2023/01/24 04:34:01;;;;;;;13.98;10.07;;;3.40;76.00;;;;;;5053829;28;20044;-61
2023/01/24 04:36:27;;;;;;;16.23;10.43;;;3.40;75.90;;;;;;5054625;28;20020;-61
2023/01/24 04:38:55;;;;;;;13.93;9.63;;;3.40;75.80;;;;;;5055517;28;20677;-62
2023/01/24 04:41:21;;;;;;;14.68;10.40;;;3.40;75.70;;;;;;5053776;28;20056;-61
2023/01/24 04:43:46;;;;;;;15.90;10.32;;;3.40;75.60;;;;;;5056977;28;20081;-61
2023/01/24 04:46:12;;;;;;;12.10;9.00;;;3.40;75.40;;;;;;5057923;28;20106;-61
2023/01/24 04:48:38;;;;;;;14.85;9.68;;;3.50;75.20;;;;;;5052573;28;20064;-62
2023/01/24 04:51:04;;;;;;;13.85;9.48;;;3.50;75.20;;;;;;5049296;28;20112;-61
2023/01/24 04:53:30;;;;;;;11.93;8.98;;;3.50;75.00;;;;;;5059901;28;20521;-61
2023/01/24 04:56:05;;;;;;;10.88;8.73;;;3.50;75.00;;;;;;5051184;28;20036;-62
2023/01/24 04:58:32;;;;;;;11.15;8.43;;;3.40;75.20;;;;;;5064396;28;20056;-61
2023/01/24 05:00:58;;;;;;;13.60;9.20;;;3.30;75.20;;;;;;5064741;28;20512;-61
2023/01/24 05:03:24;;;;;;;9.73;8.02;;;3.20;75.40;;;;;;5062720;28;20064;-61
2023/01/24 05:05:53;;;;;;;12.85;8.88;;;3.20;75.40;;;;;;5064443;28;20395;-60
2023/01/24 05:08:19;;;;;;;12.57;8.90;;;3.20;75.60;;;;;;5054424;28;20029;-60
2023/01/24 05:10:45;;;;;;;13.65;9.13;;;3.20;75.70;;;;;;5050668;28;20467;-60
2023/01/24 05:13:10;;;;;;;10.50;8.07;;;3.20;75.60;;;;;;5054169;28;20056;-60
2023/01/24 05:15:36;;;;;;;11.68;8.55;;;3.30;75.70;;;;;;5055574;28;20051;-59
2023/01/24 05:18:02;;;;;;;13.38;8.93;;;3.30;75.70;;;;;;5043526;28;20040;-62
2023/01/24 05:20:28;;;;;;;13.10;9.10;;;3.30;75.80;;;;;;5058026;28;20020;-62
2023/01/24 05:22:58;;;;;;;11.77;8.77;;;3.30;75.70;;;;;;5055552;28;20036;-61
2023/01/24 05:25:24;;;;;;;12.57;8.73;;;3.30;75.70;;;;;;5043582;28;20147;-61
2023/01/24 05:27:50;;;;;;;11.43;8.25;;;3.30;75.70;;;;;;5048634;28;20227;-62
2023/01/24 05:30:16;;;;;;;12.02;7.78;;;3.40;75.60;;;;;;5045298;28;20021;-61
2023/01/24 05:32:42;;;;;;;10.82;7.85;;;3.40;75.40;;;;;;5051178;28;20099;-61
2023/01/24 05:35:08;;;;;;;10.15;7.03;;;3.50;75.30;;;;;;5045528;28;20033;-61
2023/01/24 05:37:38;;;;;;;11.35;8.20;;;3.50;75.20;;;;;;5048103;28;20036;-60
2023/01/24 05:40:04;;;;;;;10.88;7.32;;;3.50;75.10;;;;;;5051288;28;20036;-60
2023/01/24 05:42:30;;;;;;;10.18;7.47;;;3.60;75.00;;;;;;5045617;28;20037;-59
2023/01/24 05:44:55;;;;;;;10.55;7.55;;;3.60;74.80;;;;;;5055382;28;20059;-62
2023/01/24 05:47:23;;;;;;;13.25;8.05;;;3.60;74.70;;;;;;5049498;28;20041;-60
2023/01/24 05:49:49;;;;;;;11.68;7.85;;;3.60;74.60;;;;;;5050549;28;20037;-61
2023/01/24 05:52:21;;;;;;;9.27;7.25;;;3.50;74.50;;;;;;5040340;28;20077;-61
2023/01/24 05:54:52;;;;;;;10.30;7.63;;;3.60;74.60;;;;;;5043837;28;20105;-62
2023/01/24 05:57:18;;;;;;;12.60;8.63;;;3.50;74.50;;;;;;5052355;28;20024;-60
2023/01/24 05:59:44;;;;;;;9.55;7.15;;;3.60;74.60;;;;;;5038492;28;20958;-61
2023/01/24 06:02:10;;;;;;;12.10;7.68;;;3.60;74.60;;;;;;5045215;28;20033;-56
2023/01/24 06:04:36;;;;;;;9.50;6.88;;;3.60;74.70;;;;;;5046806;28;20052;-55
2023/01/24 06:07:01;;;;;;;10.13;7.60;;;3.60;74.70;;;;;;5049358;28;20486;-62
2023/01/24 06:09:27;;;;;;;9.55;7.40;;;3.60;74.60;;;;;;5053842;28;20134;-59
2023/01/24 06:11:53;;;;;;;11.77;7.50;;;3.60;74.70;;;;;;5046963;28;20060;-59
2023/01/24 06:14:18;;;;;;;13.98;8.07;;;3.60;74.70;;;;;;5050809;28;20507;-59
2023/01/24 06:16:45;;;;;;;10.32;7.88;;;3.60;74.60;;;;;;5040019;28;20037;-49
2023/01/24 06:19:12;;;;;;;11.85;7.72;;;3.60;74.70;;;;;;5046663;28;20036;-51
2023/01/24 06:22:22;;;;;;;10.50;6.70;;;3.50;74.60;;;;;;5052550;28;20037;-59
2023/01/24 06:24:48;;;;;;;10.98;7.50;;;3.50;74.80;;;;;;5016781;28;20427;-59
2023/01/24 06:27:14;;;;;;;8.73;7.10;;;3.60;75.00;;;;;;5024822;28;20041;-62
2023/01/24 06:29:40;;;;;;;12.13;7.80;;;3.60;74.80;;;;;;5038507;28;20033;-60
2023/01/24 06:32:08;;;;;;;12.25;7.28;;;3.60;74.80;;;;;;5038960;28;20048;-62
2023/01/24 06:34:57;;;;;;;10.95;7.45;;;3.70;74.90;;;;;;5050960;28;20052;-63
2023/01/24 06:37:26;;;;;;;9.55;7.07;;;3.70;74.70;;;;;;5039227;28;20033;-62
2023/01/24 06:39:53;;;;;;;10.68;6.85;;;3.70;74.70;;;;;;5038178;28;20085;-62
2023/01/24 06:42:20;;;;;;;10.27;7.45;;;3.70;74.70;;;;;;5037956;28;20479;-61
2023/01/24 06:44:46;;;;;;;9.93;7.45;;;3.70;74.60;;;;;;5032070;28;20050;-59
2023/01/24 06:47:13;;;;;;;8.65;6.57;;;3.70;74.70;;;;;;5027833;28;20033;-60
2023/01/24 06:49:38;;;;;;;11.63;7.95;;;3.60;74.90;;;;;;5030890;28;20037;-60
2023/01/24 06:52:04;;;;;;;10.63;7.10;;;3.60;75.00;;;;;;5024100;28;20048;-60
2023/01/24 06:54:30;;;;;;;11.73;6.93;;;3.50;75.10;;;;;;5026153;28;20672;-61
2023/01/24 06:56:56;;;;;;;9.77;7.25;;;3.40;75.20;;;;;;5019376;28;21878;-59
2023/01/24 06:59:22;;;;;;;12.60;7.45;;;3.30;75.20;;;;;;5019897;28;20146;-60
2023/01/24 07:01:51;;;;;;;9.48;6.97;;;3.30;75.50;;;;;;5015599;28;20025;-59
2023/01/24 07:04:17;;;;;;;11.00;7.28;;;3.20;75.70;;;;;;5028967;28;20040;-59
2023/01/24 07:06:44;;;;;;;11.35;6.70;;;3.20;76.00;;;;;;5026364;28;20029;-58
2023/01/24 07:09:10;;;;;;;10.00;7.18;;;3.20;76.10;;;;;;5029359;28;20034;-59
2023/01/24 07:11:36;;;;;;;9.48;6.70;;;3.20;76.10;;;;;;5022301;28;20048;-58
2023/01/24 07:14:01;;;;;;;9.82;6.45;;;3.10;76.20;;;;;;5021746;28;20999;-57
2023/01/24 07:16:27;;;;;;;9.68;6.60;;;3.10;76.30;;;;;;5024474;28;20033;-57
2023/01/24 07:18:53;;;;;;;9.23;6.63;;;3.10;76.60;;;;;;5026276;28;20030;-52
2023/01/24 07:21:19;;;;;;;10.25;6.40;;;3.10;76.60;;;;;;5026011;28;20025;-56
2023/01/24 07:23:46;;;;;;;10.98;7.38;;;3.10;76.80;;;;;;5024856;28;20035;-59
2023/01/24 07:26:13;;;;;;;8.70;6.82;;;3.10;76.80;;;;;;5018949;28;20025;-52
2023/01/24 07:28:39;;;;;;;13.82;7.07;;;3.10;76.90;;;;;;5015235;28;20029;-59
2023/01/24 07:31:06;;;;;;;8.90;6.93;;;3.10;77.60;;;;;;5026536;28;20155;-56
2023/01/24 07:33:32;;;;;;;9.73;6.95;;;3.10;77.00;;;;;;5024532;28;20036;-57
2023/01/24 07:35:57;;;;;;;10.57;7.13;;;3.20;76.90;;;;;;5030707;28;20795;-62
2023/01/24 07:38:23;;;;;;;12.88;8.73;;;3.10;76.90;;;;;;5029485;28;20061;-62
2023/01/24 07:40:49;;;;;;;9.48;6.65;;;3.10;77.10;;;;;;5028169;28;20091;-62
2023/01/24 07:43:14;;;;;;;10.45;7.47;;;3.10;77.30;;;;;;5018794;28;20028;-61
2023/01/24 07:45:40;;;;;;;10.82;7.45;;;3.20;77.20;;;;;;5024119;28;20058;-61
2023/01/24 07:48:09;;;;;;;9.57;7.30;;;3.20;77.10;;;;;;5031535;28;20660;-60
2023/01/24 07:50:35;;;;;;;9.95;7.22;;;3.20;77.10;;;;;;5026359;28;20036;-59
2023/01/24 07:53:01;;;;;;;8.65;6.82;;;3.20;77.10;;;;;;5021021;28;20666;-60
2023/01/24 07:55:27;;;;;;;9.85;7.05;;;3.20;77.10;;;;;;5024973;28;20051;-61
2023/01/24 07:58:01;;;;;;;9.60;6.65;;;3.20;77.40;;;;;;5021832;28;20459;-61
2023/01/24 08:00:27;;;;;;;11.57;8.15;;;3.20;77.40;;;;;;5016592;28;20092;-60
2023/01/24 08:02:52;;;;;;;10.25;7.25;;;3.30;77.10;;;;;;5018218;28;20037;-60
2023/01/24 08:05:18;;;;;;;9.90;6.97;;;3.30;77.80;;;;;;5016190;28;21716;-61
2023/01/24 08:07:44;;;;;;;8.88;6.65;;;3.20;77.20;;;;;;5022793;28;20025;-60
2023/01/24 08:10:10;;;;;;;10.82;6.90;;;3.20;77.10;;;;;;5033491;28;20430;-60
2023/01/24 08:12:36;;;;;;;9.35;7.13;;;3.20;77.00;;;;;;5021613;28;20033;-62
2023/01/24 08:15:01;;;;;;;10.55;7.50;;;3.20;77.20;;;;;;5022556;28;20036;-61
2023/01/24 08:17:27;;;;;;;10.52;7.40;;;3.20;77.00;;;;;;5006144;28;20041;-60
2023/01/24 08:19:53;;;;;;;9.52;7.15;;;3.20;77.10;;;;;;5012588;28;20040;-61
2023/01/24 08:22:19;;;;;;;11.00;7.57;;;3.20;77.20;;;;;;5028975;28;20037;-64
2023/01/24 08:24:45;;;;;;;10.25;7.10;;;3.20;77.20;;;;;;5021216;28;20443;-59
2023/01/24 08:27:11;;;;;;;9.10;6.80;;;3.20;77.30;;;;;;5017309;28;20039;-63
2023/01/24 08:29:37;;;;;;;10.00;7.13;;;3.30;77.30;;;;;;5028626;28;20037;-63
2023/01/24 08:32:02;;;;;;;8.48;6.22;;;3.20;77.20;;;;;;5031666;28;20091;-60
2023/01/24 08:34:28;;;;;;;9.48;6.70;;;3.30;77.30;;;;;;5023739;28;20026;-60
2023/01/24 08:36:54;;;;;;;9.95;7.28;;;3.30;77.30;;;;;;5027084;28;20032;-62
2023/01/24 08:39:20;;;;;;;11.48;7.50;;;3.30;77.30;;;;;;5026714;28;20510;-62
2023/01/24 08:41:48;;;;;;;9.80;7.18;;;3.40;78.00;;;;;;5025592;28;20078;-62
2023/01/24 08:44:15;;;;;;;9.07;6.57;;;3.40;77.40;;;;;;5023086;28;20085;-61
2023/01/24 08:46:41;;;;;;;9.10;6.55;;;3.40;77.20;;;;;;5027411;28;20065;-61
2023/01/24 08:49:07;;;;;;;9.43;7.55;;;3.40;77.00;;;;;;5020922;28;21782;-60
2023/01/24 08:51:33;;;;;;;10.27;7.38;;;3.40;77.10;;;;;;5028660;28;20041;-62
2023/01/24 08:53:58;;;;;;;10.50;7.90;;;3.40;77.20;;;;;;5018132;28;20025;-61
2023/01/24 08:56:24;;;;;;;10.18;6.68;;;3.40;77.30;;;;;;5023957;28;20025;-59
2023/01/24 08:58:50;;;;;;;10.80;7.60;;;3.50;77.30;;;;;;5022543;28;20103;-59
2023/01/24 09:01:15;;;;;;;8.13;6.35;;;3.50;77.10;;;;;;5009672;28;20094;-61
2023/01/24 09:03:41;;;;;;;13.10;7.20;;;3.50;76.90;;;;;;5010653;28;20030;-61
2023/01/24 09:06:07;;;;;;;10.93;8.25;;;3.50;76.70;;;;;;5022874;28;20120;-60
2023/01/24 09:08:33;;;;;;;10.55;7.10;;;3.50;76.90;;;;;;5024468;28;20089;-60
2023/01/24 09:10:59;;;;;;;9.43;7.40;;;3.50;77.10;;;;;;5025092;28;20031;-60
2023/01/24 09:13:25;;;;;;;8.20;6.63;;;3.50;77.20;;;;;;5016024;28;20849;-60
2023/01/24 09:15:51;;;;;;;10.57;7.13;;;3.40;77.00;;;;;;5016510;28;20050;-61
2023/01/24 09:18:17;;;;;;;12.20;7.32;;;3.50;77.20;;;;;;5020180;28;21050;-63
2023/01/24 09:20:43;;;;;;;10.00;7.68;;;3.50;77.10;;;;;;5022714;28;20036;-62
2023/01/24 09:23:11;;;;;;;10.88;7.47;;;3.60;76.90;;;;;;5012252;28;20085;-59
2023/01/24 09:25:37;;;;;;;9.05;6.28;;;3.60;76.90;;;;;;5004602;28;20055;-59
2023/01/24 09:28:03;;;;;;;10.65;7.63;;;3.70;76.80;;;;;;4983510;28;20085;-61
2023/01/24 09:30:29;;;;;;;11.43;7.95;;;3.70;76.70;;;;;;5003432;28;20120;-61
2023/01/24 09:32:55;;;;;;;11.60;7.90;;;3.70;76.60;;;;;;4996084;28;20041;-59
2023/01/24 09:35:20;;;;;;;10.48;8.05;;;3.70;76.50;;;;;;4992737;28;20482;-61
2023/01/24 09:37:46;;;;;;;9.68;7.45;;;3.70;76.50;;;;;;5014790;28;20041;-58
2023/01/24 09:40:25;;;;;;;9.80;7.20;;;3.80;76.50;;;;;;5004190;28;20029;-61
2023/01/24 09:43:06;;;;;;;8.73;7.15;;;3.80;76.00;;;;;;4995977;28;20033;-59
2023/01/24 09:46:06;;;;;;;9.73;6.83;;;3.90;76.50;;;;;;5006510;28;20077;-56
2023/01/24 09:48:34;;;;;;;9.85;6.88;;;3.80;76.00;;;;;;4998589;28;20041;-61
2023/01/24 09:51:06;;;;;;;8.98;6.82;;;3.80;76.30;;;;;;5002066;28;21366;-55
2023/01/24 09:53:45;;;;;;;9.68;7.50;;;3.80;76.30;;;;;;5012486;28;20028;-58
2023/01/24 09:56:38;;;;;;;11.07;7.53;;;3.80;76.40;;;;;;5018281;28;20045;-58
2023/01/24 09:59:09;;;;;;;11.32;7.75;;;3.80;76.30;;;;;;5011864;28;20029;-60
2023/01/24 10:01:41;;;;;;;8.88;7.05;;;3.90;76.30;;;;;;5003171;28;20032;-59
2023/01/24 10:04:16;;;;;;;11.65;7.90;;;3.90;76.00;;;;;;5009974;28;20441;-57
2023/01/24 10:07:01;;;;;;;9.27;7.22;;;3.90;75.80;;;;;;5013122;28;20036;-58
2023/01/24 10:09:43;;;;;;;9.85;8.05;;;3.80;76.00;;;;;;5016254;28;20076;-57
2023/01/24 10:12:43;;;;;;;9.57;7.00;;;3.80;76.00;;;;;;5001907;28;20028;-60
2023/01/24 10:15:17;;;;;;;10.30;7.32;;;3.80;76.10;;;;;;5007236;28;20056;-60
2023/01/24 10:18:18;;;;;;;12.35;7.90;;;3.80;76.90;;;;;;5021643;28;20024;-56
2023/01/24 10:21:02;;;;;;;10.10;7.47;;;3.80;76.10;;;;;;5015859;28;20041;-57
2023/01/24 10:23:33;;;;;;;11.10;8.15;;;3.80;76.40;;;;;;5014983;28;20036;-57
2023/01/24 10:26:24;;;;;;;9.88;7.93;;;3.80;76.30;;;;;;5023240;28;20741;-55
2023/01/24 10:28:52;;;;;;;9.30;7.18;;;3.90;76.30;;;;;;5001410;28;21050;-59
2023/01/24 10:31:41;;;;;;;10.15;7.38;;;3.90;76.20;;;;;;5020901;28;20037;-58
2023/01/24 10:34:16;;;;;;;8.38;6.57;;;3.90;76.00;;;;;;5025766;28;20037;-54
2023/01/24 10:36:45;;;;;;;8.98;6.88;;;3.90;76.10;;;;;;5025364;28;20101;-56
2023/01/24 10:39:11;;;;;;;10.18;7.90;;;3.90;76.10;;;;;;5019385;28;20047;-59
2023/01/24 10:41:37;;;;;;;9.68;7.07;;;3.90;76.10;;;;;;5020570;28;21333;-56
2023/01/24 10:44:13;;;;;;;9.27;7.20;;;3.90;76.80;;;;;;5017133;28;20058;-56
2023/01/24 10:47:21;;;;;;;9.75;7.45;;;3.90;76.30;;;;;;5010169;28;20600;-58
2023/01/24 10:50:09;;;;;;;11.98;8.07;;;3.90;76.20;;;;;;4996261;28;20631;-56
2023/01/24 10:52:34;;;;;;;9.07;6.88;;;3.90;76.10;;;;;;5022599;28;20112;-56
2023/01/24 10:55:02;;;;;;;13.57;7.70;;;3.90;76.20;;;;;;5022192;28;20048;-55
2023/01/24 10:57:52;;;;;;;9.40;6.88;;;3.90;76.20;;;;;;5025410;28;20132;-57
2023/01/24 11:00:22;;;;;;;10.65;7.20;;;3.90;76.30;;;;;;5013532;28;20047;-58
2023/01/24 11:02:50;;;;;;;8.10;6.60;;;3.90;76.30;;;;;;5022209;28;20032;-53
2023/01/24 11:05:19;;;;;;;10.43;7.10;;;3.90;76.30;;;;;;5023917;28;20043;-58
2023/01/24 11:07:54;;;;;;;11.27;7.63;;;3.90;76.40;;;;;;5014751;28;20151;-58
2023/01/24 11:10:22;;;;;;;8.57;6.18;;;3.90;76.40;;;;;;5021974;28;20029;-50
2023/01/24 11:12:48;;;;;;;9.52;7.38;;;3.90;76.30;;;;;;5023554;28;20032;-55
2023/01/24 11:15:21;;;;;;;10.23;7.03;;;3.90;76.20;;;;;;5015529;28;20052;-51
2023/01/24 11:17:57;;;;;;;11.82;7.82;;;3.90;76.30;;;;;;5020890;28;20033;-59
2023/01/24 11:20:26;;;;;;;9.85;7.40;;;3.90;76.30;;;;;;5022153;28;20042;-53
2023/01/24 11:23:24;;;;;;;10.00;7.20;;;3.90;76.30;;;;;;5022458;28;20035;-59
2023/01/24 11:25:57;;;;;;;10.60;7.40;;;3.90;76.30;;;;;;5016148;28;20044;-58
2023/01/24 11:28:27;;;;;;;13.60;8.30;;;3.90;76.30;;;;;;5035695;28;20074;-55
2023/01/24 11:30:55;;;;;;;10.52;7.43;;;3.90;76.30;;;;;;5021572;28;20125;-57
2023/01/24 11:33:34;;;;;;;9.07;6.22;;;3.90;76.30;;;;;;5026726;28;20030;-55
2023/01/24 11:36:11;;;;;;;9.93;7.22;;;3.90;76.40;;;;;;5033422;28;20166;-58
2023/01/24 11:38:42;;;;;;;10.93;7.90;;;3.90;76.40;;;;;;5020040;28;20094;-58
2023/01/24 11:41:22;;;;;;;10.27;8.07;;;4.00;76.30;;;;;;5024581;28;20029;-56
2023/01/24 11:44:03;;;;;;;10.45;7.20;;;3.90;76.30;;;;;;5021829;28;20061;-56
2023/01/24 11:46:28;;;;;;;10.73;8.13;;;4.00;76.50;;;;;;5027219;28;20030;-57
2023/01/24 11:49:18;;;;;;;11.27;7.55;;;4.00;76.30;;;;;;5017882;28;20037;-59
2023/01/24 11:52:02;;;;;;;11.25;8.10;;;3.90;76.20;;;;;;5017626;28;20030;-55
2023/01/24 11:54:47;;;;;;;9.85;7.53;;;3.90;76.30;;;;;;5008766;28;20052;-55
2023/01/24 11:57:36;;;;;;;9.73;7.15;;;3.90;76.40;;;;;;5015704;28;20061;-58
2023/01/24 12:00:21;;;;;;;11.68;7.60;;;3.90;76.40;;;;;;5003957;28;20032;-58
2023/01/24 12:03:24;;;;;;;9.60;7.00;;;3.90;76.30;;;;;;5020926;28;20030;-51
2023/01/24 12:06:00;;;;;;;10.02;7.82;;;3.90;76.10;;;;;;5022753;28;20171;-56
2023/01/24 12:08:38;;;;;;;9.60;7.13;;;3.90;76.20;;;;;;5025784;28;20528;-55
2023/01/24 12:11:15;;;;;;;10.95;7.78;;;3.90;76.20;;;;;;5040029;28;20102;-53
2023/01/24 12:13:59;;;;;;;9.18;6.75;;;3.90;76.20;;;;;;5024695;28;21077;-53
2023/01/24 12:16:42;;;;;;;9.20;6.88;;;3.90;76.10;;;;;;5025451;28;20037;-50
2023/01/24 12:19:38;;;;;;;9.52;7.30;;;3.90;76.20;;;;;;5033390;28;20400;-51
2023/01/24 12:22:14;;;;;;;9.82;7.25;;;3.90;76.10;;;;;;5029846;28;20026;-52
2023/01/24 12:24:43;;;;;;;10.18;6.65;;;3.90;76.30;;;;;;5026996;28;21978;-58
2023/01/24 12:27:19;;;;;;;9.95;7.57;;;3.90;76.30;;;;;;5021358;28;20026;-55
2023/01/24 12:30:13;;;;;;;13.05;8.98;;;3.90;76.30;;;;;;5033887;28;20074;-60
2023/01/24 12:32:45;;;;;;;16.48;10.00;;;3.90;76.40;;;;;;5018478;28;20044;-58
2023/01/24 12:35:35;;;;;;;14.75;9.18;;;3.90;76.30;;;;;;5019833;28;20040;-54
2023/01/24 12:38:03;;;;;;;11.82;8.02;;;3.90;76.30;;;;;;5011339;28;20160;-54
2023/01/24 12:40:39;;;;;;;9.73;7.32;;;3.90;76.30;;;;;;5011771;28;22017;-55
2023/01/24 12:43:20;;;;;;;8.82;6.95;;;3.90;76.20;;;;;;5005405;28;20039;-56
2023/01/24 12:46:09;;;;;;;9.13;7.23;;;3.90;76.30;;;;;;5017923;28;20080;-58
2023/01/24 12:49:00;;;;;;;10.45;7.20;;;3.90;76.30;;;;;;5023439;28;20329;-55
2023/01/24 12:51:37;;;;;;;9.73;7.72;;;3.90;76.40;;;;;;5015017;28;20040;-54
2023/01/24 12:54:11;;;;;;;10.02;7.28;;;3.80;76.20;;;;;;5009850;28;22437;-57
2023/01/24 12:56:47;;;;;;;12.48;7.93;;;3.80;76.30;;;;;;5024343;28;20499;-58
2023/01/24 12:59:16;;;;;;;11.05;7.72;;;3.90;76.50;;;;;;5023310;28;20831;-56
2023/01/24 13:01:50;;;;;;;10.27;7.13;;;3.90;76.50;;;;;;5016949;28;20025;-59
2023/01/24 13:04:40;;;;;;;9.90;7.72;;;3.90;76.50;;;;;;5006519;28;20126;-60
2023/01/24 13:07:26;;;;;;;10.00;7.45;;;3.90;76.40;;;;;;5020593;28;20039;-57
2023/01/24 13:10:00;;;;;;;11.65;7.90;;;3.90;76.40;;;;;;5038870;28;20034;-57
2023/01/24 13:12:29;;;;;;;10.20;7.05;;;3.90;76.50;;;;;;5027006;28;20033;-52
2023/01/24 13:15:33;;;;;;;9.57;7.38;;;3.80;76.50;;;;;;5021016;28;20036;-55
2023/01/24 13:18:39;;;;;;;9.57;6.68;;;3.90;76.40;;;;;;4986381;28;20891;-55
2023/01/24 13:21:17;;;;;;;8.98;6.72;;;3.80;76.40;;;;;;5015036;28;20056;-57
2023/01/24 13:24:02;;;;;;;10.10;7.57;;;3.80;76.50;;;;;;5018887;28;20056;-52
2023/01/24 13:26:37;;;;;;;9.77;7.28;;;3.80;76.50;;;;;;5030032;28;20059;-58
2023/01/24 13:29:18;;;;;;;10.15;8.05;;;3.80;76.60;;;;;;5027422;28;20032;-58
2023/01/24 13:32:14;;;;;;;10.80;7.43;;;3.80;76.50;;;;;;5019635;28;20064;-55
2023/01/24 13:34:47;;;;;;;12.05;8.27;;;3.80;76.40;;;;;;4993381;28;20044;-59
2023/01/24 13:37:20;;;;;;;11.02;8.00;;;3.80;76.50;;;;;;5018504;28;20088;-55
2023/01/24 13:39:47;;;;;;;10.43;7.97;;;3.80;76.50;;;;;;5017905;28;20472;-55
2023/01/24 13:42:21;;;;;;;10.27;7.35;;;3.70;76.60;;;;;;5023797;28;20044;-54
2023/01/24 13:44:46;;;;;;;11.20;7.78;;;3.80;76.60;;;;;;5029253;28;20694;-58
2023/01/24 13:47:15;;;;;;;11.63;8.00;;;3.70;76.50;;;;;;5022473;28;20033;-55
2023/01/24 13:49:53;;;;;;;14.35;9.60;;;3.70;76.60;;;;;;5006086;28;21321;-58